createdAt,value
2023-04-10T00:00:11.044Z,1.23
2023-04-10T00:02:40.047Z,1.37
2023-04-10T00:05:09.690Z,1.37
2023-04-10T00:07:38.450Z,1.83
2023-04-10T00:10:08.114Z,1.73
2023-04-10T00:12:37.290Z,2.25
2023-04-10T00:15:08.500Z,2.08
2023-04-10T00:17:37.448Z,2.20
2023-04-10T00:20:07.436Z,1.85
2023-04-10T00:22:36.130Z,1.40
2023-04-10T00:25:06.566Z,1.83
2023-04-10T00:27:35.257Z,1.23
2023-04-10T00:30:04.034Z,2.00
2023-04-10T00:32:34.446Z,2.22
2023-04-10T00:35:03.975Z,1.20
2023-04-10T00:37:33.030Z,2.37
2023-04-10T00:40:01.972Z,2.05
2023-04-10T00:42:30.590Z,2.12
2023-04-10T00:44:59.588Z,1.30
2023-04-10T00:47:28.711Z,1.37
2023-04-10T00:50:01.681Z,1.87
2023-04-10T00:52:31.063Z,1.35
2023-04-10T00:54:59.798Z,1.20
2023-04-10T00:57:28.548Z,2.17
2023-04-10T00:59:57.514Z,1.65
2023-04-10T01:02:26.491Z,1.48
2023-04-10T01:04:55.272Z,1.75
2023-04-10T01:07:34.679Z,1.48
2023-04-10T01:10:07.372Z,1.67
2023-04-10T01:12:45.724Z,2.20
2023-04-10T01:15:16.953Z,1.87
2023-04-10T01:17:51.358Z,1.50
2023-04-10T01:20:23.107Z,1.95
2023-04-10T01:23:09.995Z,1.60
2023-04-10T01:25:44.932Z,1.12
2023-04-10T01:28:49.681Z,1.20
2023-04-10T01:31:21.495Z,2.12
2023-04-10T01:33:52.813Z,1.90
2023-04-10T01:36:26.228Z,2.00
2023-04-10T01:38:56.313Z,2.37
2023-04-10T01:41:26.233Z,1.77
2023-04-10T01:43:57.097Z,1.33
2023-04-10T01:46:26.598Z,1.92
2023-04-10T01:48:56.735Z,1.33
2023-04-10T01:51:26.358Z,1.65
2023-04-10T01:53:55.753Z,1.35
2023-04-10T01:56:25.231Z,1.90
2023-04-10T01:58:53.856Z,1.60
2023-04-10T02:01:29.650Z,1.98
2023-04-10T02:03:59.945Z,1.90
2023-04-10T02:06:35.563Z,1.87
2023-04-10T02:09:10.437Z,1.15
2023-04-10T02:11:43.653Z,1.75
2023-04-10T02:14:13.123Z,1.52
2023-04-10T02:16:44.233Z,1.17
2023-04-10T02:21:43.865Z,1.33
2023-04-10T02:24:12.501Z,2.25
2023-04-10T02:26:48.090Z,2.12
2023-04-10T02:29:17.157Z,1.35
2023-04-10T02:31:47.735Z,1.60
2023-04-10T02:34:16.568Z,1.12
2023-04-10T02:36:45.506Z,1.40
2023-04-10T02:39:14.218Z,1.55
2023-04-10T02:41:46.504Z,1.52
2023-04-10T02:44:15.896Z,1.52
2023-04-10T02:46:44.733Z,1.75
2023-04-10T02:49:14.979Z,1.80
2023-04-10T02:51:43.934Z,1.60
2023-04-10T02:54:12.620Z,1.65
2023-04-10T02:56:43.123Z,1.42
2023-04-10T02:59:12.200Z,1.00
2023-04-10T03:01:41.079Z,1.85
2023-04-10T03:04:09.941Z,1.87
2023-04-10T03:06:40.560Z,1.30
2023-04-10T03:09:09.306Z,1.58
2023-04-10T03:11:38.217Z,1.73
2023-04-10T03:14:09.719Z,1.80
2023-04-10T03:16:38.469Z,1.87
2023-04-10T03:19:07.622Z,1.95
2023-04-10T03:21:36.662Z,1.60
2023-04-10T03:24:07.515Z,1.65
2023-04-10T03:26:36.675Z,1.52
2023-04-10T03:29:05.450Z,1.70
2023-04-10T03:31:35.946Z,1.30
2023-04-10T03:34:04.984Z,1.50
2023-04-10T03:36:33.654Z,1.33
2023-04-10T03:39:02.476Z,1.20
2023-04-10T03:41:33.097Z,1.62
2023-04-10T03:44:05.343Z,1.50
2023-04-10T03:46:34.380Z,1.83
2023-04-10T03:49:03.330Z,1.40
2023-04-10T03:51:32.424Z,1.50
2023-04-10T03:54:01.305Z,2.17
2023-04-10T03:56:30.408Z,1.55
2023-04-10T03:59:01.311Z,1.55
2023-04-10T04:01:30.737Z,2.17
2023-04-10T04:04:01.121Z,1.33
2023-04-10T04:06:31.199Z,1.77
2023-04-10T04:09:01.862Z,1.75
2023-04-10T04:11:31.461Z,1.50
2023-04-10T04:14:01.553Z,1.85
2023-04-10T04:16:30.747Z,1.57
2023-04-10T04:19:00.232Z,1.80
2023-04-10T04:21:29.350Z,2.03
2023-04-10T04:23:58.523Z,1.67
2023-04-10T04:26:27.432Z,1.62
2023-04-10T04:28:58.214Z,1.33
2023-04-10T04:31:33.221Z,1.92
2023-04-10T04:34:03.178Z,1.30
2023-04-10T04:36:32.269Z,1.62
2023-04-10T04:39:01.197Z,1.40
2023-04-10T04:41:32.276Z,1.62
2023-04-10T04:46:32.769Z,1.27
2023-04-10T04:49:01.886Z,1.37
2023-04-10T04:51:30.909Z,1.33
2023-04-10T04:54:00.808Z,2.20
2023-04-10T04:56:30.057Z,2.12
2023-04-10T04:58:59.664Z,1.87
2023-04-10T05:01:28.736Z,1.10
2023-04-10T05:03:59.845Z,1.20
2023-04-10T05:06:31.696Z,1.15
2023-04-10T05:09:02.379Z,1.67
2023-04-10T05:11:31.733Z,2.03
2023-04-10T05:14:01.150Z,1.65
2023-04-10T05:16:30.664Z,1.42
2023-04-10T05:19:02.418Z,1.50
2023-04-10T05:21:39.697Z,1.23
2023-04-10T05:24:09.440Z,1.67
2023-04-10T05:26:38.795Z,1.40
2023-04-10T05:29:07.676Z,1.20
2023-04-10T05:31:36.593Z,2.10
2023-04-10T05:34:07.995Z,1.60
2023-04-10T05:36:37.497Z,1.58
2023-04-10T05:39:06.814Z,1.30
2023-04-10T05:41:36.137Z,2.00
2023-04-10T05:44:05.960Z,1.62
2023-04-10T05:46:35.143Z,2.03
2023-04-10T05:49:07.963Z,1.33
2023-04-10T05:51:37.222Z,2.03
2023-04-10T05:54:06.188Z,2.72
2023-04-10T05:56:40.258Z,1.27
2023-04-10T05:59:09.033Z,2.50
2023-04-10T06:01:40.415Z,1.40
2023-04-10T06:04:11.321Z,1.45
2023-04-10T06:06:40.887Z,2.10
2023-04-10T06:09:09.751Z,2.12
2023-04-10T06:11:40.606Z,1.37
2023-04-10T06:16:39.126Z,2.08
2023-04-10T06:19:07.941Z,1.95
2023-04-10T06:21:39.394Z,1.90
2023-04-10T06:24:08.417Z,1.43
2023-04-10T06:26:38.483Z,1.50
2023-04-10T06:29:07.191Z,1.40
2023-04-10T06:31:36.597Z,1.77
2023-04-10T06:34:05.757Z,1.55
2023-04-10T06:36:35.107Z,1.52
2023-04-10T06:39:06.641Z,1.73
2023-04-10T06:44:06.779Z,1.85
2023-04-10T06:46:35.548Z,1.85
2023-04-10T06:49:04.386Z,2.10
2023-04-10T06:51:33.379Z,2.05
2023-04-10T06:54:01.972Z,1.62
2023-04-10T06:56:33.116Z,1.52
2023-04-10T07:01:30.458Z,2.00
2023-04-10T07:03:59.185Z,1.37
2023-04-10T07:06:29.022Z,2.08
2023-04-10T07:08:57.682Z,1.40
2023-04-10T07:11:26.391Z,2.00
2023-04-10T07:13:58.559Z,2.33
2023-04-10T07:16:27.569Z,1.85
2023-04-10T07:18:57.174Z,1.50
2023-04-10T07:21:27.222Z,1.20
2023-04-10T07:23:56.365Z,1.50
2023-04-10T07:26:25.525Z,1.90
2023-04-10T07:28:54.414Z,1.08
2023-04-10T07:31:25.027Z,1.40
2023-04-10T07:33:53.663Z,1.37
2023-04-10T07:36:22.341Z,1.65
2023-04-10T07:38:51.372Z,1.52
2023-04-10T07:41:20.049Z,1.48
2023-04-10T07:43:48.755Z,2.00
2023-04-10T07:46:18.238Z,1.52
2023-04-10T07:48:49.619Z,1.75
2023-04-10T07:51:18.686Z,1.23
2023-04-10T07:53:47.366Z,1.45
2023-04-10T07:56:19.568Z,1.37
2023-04-10T07:58:48.950Z,2.42
2023-04-10T08:01:17.637Z,1.25
2023-04-10T08:03:48.738Z,1.92
2023-04-10T08:06:17.539Z,1.23
2023-04-10T08:08:46.529Z,1.17
2023-04-10T08:11:25.750Z,1.20
2023-04-10T08:13:54.908Z,1.00
2023-04-10T08:16:25.366Z,1.10
2023-04-10T08:18:57.597Z,1.00
2023-04-10T08:21:27.281Z,1.10
2023-04-10T08:23:57.691Z,1.42
2023-04-10T08:26:27.395Z,1.20
2023-04-10T08:28:58.415Z,1.00
2023-04-10T08:31:28.741Z,0.88
2023-04-10T08:34:01.872Z,1.45
2023-04-10T08:36:31.577Z,0.80
2023-04-10T08:39:00.812Z,1.80
2023-04-10T08:41:29.606Z,1.45
2023-04-10T08:43:58.604Z,1.15
2023-04-10T08:46:27.660Z,1.20
2023-04-10T08:49:06.680Z,1.50
2023-04-10T08:51:39.005Z,1.25
2023-04-10T08:54:09.034Z,0.90
2023-04-10T08:56:39.160Z,1.10
2023-04-10T08:59:09.012Z,1.42
2023-04-10T09:01:38.008Z,1.87
2023-04-10T09:04:08.408Z,0.93
2023-04-10T09:06:37.108Z,1.33
2023-04-10T09:09:07.033Z,1.12
2023-04-10T09:12:00.701Z,1.23
2023-04-10T09:14:31.885Z,1.10
2023-04-10T09:17:18.152Z,1.25
2023-04-10T09:19:49.479Z,1.02
2023-04-10T09:22:18.408Z,1.17
2023-04-10T09:24:48.525Z,1.00
2023-04-10T09:27:32.630Z,1.42
2023-04-10T09:30:02.199Z,0.80
2023-04-10T09:32:41.724Z,1.30
2023-04-10T09:35:13.611Z,0.88
2023-04-10T09:37:43.434Z,0.88
2023-04-10T09:40:21.975Z,0.95
2023-04-10T09:42:50.731Z,1.42
2023-04-10T09:45:20.167Z,1.10
2023-04-10T09:48:02.999Z,0.68
2023-04-10T09:50:40.914Z,0.70
2023-04-10T09:53:10.387Z,1.20
2023-04-10T09:55:41.890Z,1.10
2023-04-10T09:58:11.527Z,1.02
2023-04-10T10:00:42.457Z,1.05
2023-04-10T10:03:17.536Z,1.80
2023-04-10T10:05:49.410Z,0.68
2023-04-10T10:08:18.751Z,0.70
2023-04-10T10:10:49.725Z,1.40
2023-04-10T10:13:24.057Z,0.75
2023-04-10T10:15:58.218Z,0.90
2023-04-10T10:18:34.351Z,0.75
2023-04-10T10:21:05.018Z,0.90
2023-04-10T10:23:34.738Z,0.80
2023-04-10T10:26:06.656Z,1.25
2023-04-10T10:28:37.228Z,1.08
2023-04-10T10:31:06.741Z,1.07
2023-04-10T10:33:37.259Z,1.10
2023-04-10T10:36:08.539Z,1.05
2023-04-10T10:38:41.276Z,1.02
2023-04-10T10:41:14.254Z,0.80
2023-04-10T10:43:51.982Z,0.88
2023-04-10T10:46:26.155Z,0.93
2023-04-10T10:48:58.933Z,0.70
2023-04-10T10:51:45.384Z,1.05
2023-04-10T10:54:30.888Z,0.85
2023-04-10T10:56:59.611Z,0.98
2023-04-10T10:59:59.359Z,0.80
2023-04-10T11:02:28.149Z,0.70
2023-04-10T11:04:57.256Z,1.58
2023-04-10T11:08:06.027Z,1.23
2023-04-10T11:11:05.657Z,1.10
2023-04-10T11:13:35.083Z,1.08
2023-04-10T11:16:05.349Z,0.70
2023-04-10T11:19:13.220Z,1.25
2023-04-10T11:22:05.385Z,0.95
2023-04-10T11:24:57.660Z,0.90
2023-04-10T11:27:46.246Z,1.00
2023-04-10T11:30:36.973Z,0.95
2023-04-10T11:33:06.700Z,0.82
2023-04-10T11:35:35.483Z,0.88
2023-04-10T11:38:18.148Z,0.70
2023-04-10T11:41:07.187Z,1.02
2023-04-10T11:43:37.654Z,1.00
2023-04-10T11:46:08.681Z,0.75
2023-04-10T11:48:38.019Z,0.88
2023-04-10T11:51:14.000Z,0.82
2023-04-10T11:53:43.172Z,0.95
2023-04-10T11:56:21.129Z,0.98
2023-04-10T11:58:54.964Z,1.30
2023-04-10T12:01:24.597Z,1.25
2023-04-10T12:03:53.790Z,1.17
2023-04-10T12:06:23.168Z,0.90
2023-04-10T12:08:52.013Z,1.05
2023-04-10T12:11:22.830Z,0.62
2023-04-10T12:13:55.777Z,1.23
2023-04-10T12:16:26.546Z,0.50
2023-04-10T12:18:55.833Z,1.00
2023-04-10T12:21:24.817Z,0.85
2023-04-10T12:23:53.442Z,0.80
2023-04-10T12:26:22.034Z,0.75
2023-04-10T12:28:54.831Z,1.00
2023-04-10T12:31:31.094Z,0.85
2023-04-10T12:34:02.240Z,1.58
2023-04-10T12:36:32.164Z,1.35
2023-04-10T12:39:05.335Z,1.40
2023-04-10T12:41:35.139Z,0.80
2023-04-10T12:44:12.657Z,0.57
2023-04-10T12:46:41.839Z,1.48
2023-04-10T12:49:12.437Z,1.10
2023-04-10T12:51:48.674Z,0.73
2023-04-10T12:54:31.399Z,0.90
2023-04-10T12:57:00.616Z,0.90
2023-04-10T12:59:31.623Z,1.00
2023-04-10T13:02:00.640Z,1.20
2023-04-10T13:04:31.195Z,1.12
2023-04-10T13:07:00.042Z,1.50
2023-04-10T13:09:28.960Z,0.98
2023-04-10T13:11:58.477Z,0.70
2023-04-10T13:14:27.133Z,0.93
2023-04-10T13:16:57.444Z,1.15
2023-04-10T13:19:26.207Z,1.17
2023-04-10T13:21:54.857Z,0.90
2023-04-10T13:24:23.977Z,0.95
2023-04-10T13:26:52.612Z,1.02
2023-04-10T13:29:21.277Z,0.95
2023-04-10T13:31:50.400Z,1.12
2023-04-10T13:34:24.606Z,0.73
2023-04-10T13:36:53.554Z,0.80
2023-04-10T13:39:22.298Z,0.68
2023-04-10T13:41:51.064Z,1.00
2023-04-10T13:44:20.039Z,1.25
2023-04-10T13:46:48.737Z,0.52
2023-04-10T13:49:18.018Z,0.60
2023-04-10T13:51:48.574Z,0.93
2023-04-10T13:54:17.770Z,0.70
2023-04-10T13:56:46.962Z,0.60
2023-04-10T13:59:15.890Z,0.50
2023-04-10T14:01:44.640Z,0.77
2023-04-10T14:04:13.582Z,0.80
2023-04-10T14:06:42.189Z,1.52
2023-04-10T14:09:12.214Z,0.65
2023-04-10T14:11:41.265Z,0.77
2023-04-10T14:14:09.868Z,0.88
2023-04-10T14:16:38.515Z,1.12
2023-04-10T14:19:10.008Z,0.80
2023-04-10T14:24:09.360Z,1.00
2023-04-10T14:26:39.350Z,1.02
2023-04-10T14:29:09.077Z,0.93
2023-04-10T14:31:50.569Z,1.15
2023-04-10T14:34:23.443Z,1.17
2023-04-10T14:36:56.003Z,0.60
2023-04-10T14:39:25.637Z,0.88
2023-04-10T14:41:57.071Z,0.90
2023-04-10T14:46:54.361Z,0.70
2023-04-10T14:49:23.092Z,0.50
2023-04-10T14:51:51.736Z,0.30
2023-04-10T14:54:22.037Z,0.62
2023-04-10T14:56:50.931Z,0.80
2023-04-10T14:59:21.253Z,0.90
2023-04-10T15:01:50.057Z,0.37
2023-04-10T15:04:18.892Z,1.00
2023-04-10T15:06:47.711Z,0.55
2023-04-10T15:09:16.407Z,0.77
2023-04-10T15:11:45.165Z,0.75
2023-04-10T15:14:14.165Z,0.70
2023-04-10T15:16:44.205Z,1.05
2023-04-10T15:19:12.976Z,0.75
2023-04-10T15:21:44.692Z,0.77
2023-04-10T15:24:13.423Z,0.73
2023-04-10T15:26:45.078Z,0.37
2023-04-10T15:29:13.875Z,0.60
2023-04-10T15:31:46.742Z,0.55
2023-04-10T15:34:15.388Z,0.70
2023-04-10T15:36:44.262Z,1.08
2023-04-10T15:39:13.024Z,0.82
2023-04-10T15:41:41.643Z,0.60
2023-04-10T15:44:11.812Z,0.82
2023-04-10T15:46:40.490Z,0.73
2023-04-10T15:49:10.570Z,0.62
2023-04-10T15:51:39.561Z,0.60
2023-04-10T15:54:09.095Z,0.80
2023-04-10T15:56:40.784Z,0.55
2023-04-10T15:59:09.652Z,0.70
2023-04-10T16:01:38.279Z,1.02
2023-04-10T16:04:07.365Z,0.93
2023-04-10T16:06:37.440Z,0.60
2023-04-10T16:09:15.283Z,0.65
2023-04-10T16:11:53.847Z,0.60
2023-04-10T16:14:22.678Z,0.80
2023-04-10T16:16:51.997Z,0.60
2023-04-10T16:19:21.205Z,0.60
2023-04-10T16:21:53.684Z,1.05
2023-04-10T16:24:23.627Z,1.05
2023-04-10T16:26:55.205Z,0.95
2023-04-10T16:29:24.254Z,0.93
2023-04-10T16:31:53.079Z,0.98
2023-04-10T16:34:22.022Z,0.80
2023-04-10T16:36:52.283Z,1.33
2023-04-10T16:39:21.010Z,1.00
2023-04-10T16:41:51.912Z,0.95
2023-04-10T16:46:49.448Z,0.70
2023-04-10T16:49:18.173Z,0.98
2023-04-10T16:51:49.229Z,0.98
2023-04-10T16:54:19.427Z,0.82
2023-04-10T16:56:51.654Z,1.23
2023-04-10T16:59:20.304Z,0.75
2023-04-10T17:01:49.226Z,1.08
2023-04-10T17:04:21.196Z,0.50
2023-04-10T17:06:50.298Z,0.93
2023-04-10T17:09:22.701Z,0.85
2023-04-10T17:11:53.260Z,0.80
2023-04-10T17:14:22.065Z,1.10
2023-04-10T17:16:54.219Z,1.00
2023-04-10T17:19:23.188Z,0.70
2023-04-10T17:21:52.339Z,0.85
2023-04-10T17:24:22.788Z,1.37
2023-04-10T17:26:51.704Z,0.80
2023-04-10T17:29:22.407Z,0.90
2023-04-10T17:31:51.316Z,0.70
2023-04-10T17:34:20.203Z,0.80
2023-04-10T17:36:49.760Z,1.12
2023-04-10T17:39:18.826Z,0.80
2023-04-10T17:41:49.153Z,1.10
2023-04-10T17:44:18.234Z,0.98
2023-04-10T17:46:47.491Z,0.90
2023-04-10T17:49:16.441Z,1.02
2023-04-10T17:51:45.491Z,1.17
2023-04-10T17:54:14.406Z,1.25
2023-04-10T17:56:43.710Z,1.00
2023-04-10T17:59:14.355Z,1.27
2023-04-10T18:01:43.558Z,1.10
2023-04-10T18:04:12.991Z,1.45
2023-04-10T18:06:42.380Z,2.20
2023-04-10T18:09:11.565Z,1.25
2023-04-10T18:11:41.085Z,1.50
2023-04-10T18:14:10.828Z,1.30
2023-04-10T18:16:41.839Z,0.80
2023-04-10T18:19:11.115Z,1.27
2023-04-10T18:21:41.977Z,1.20
2023-04-10T18:24:15.714Z,1.85
2023-04-10T18:26:45.455Z,1.45
2023-04-10T18:29:15.001Z,1.00
2023-04-10T18:31:45.293Z,1.52
2023-04-10T18:34:14.668Z,1.40
2023-04-10T18:36:45.620Z,0.98
2023-04-10T18:39:18.215Z,1.40
2023-04-10T18:41:47.113Z,1.37
2023-04-10T18:44:16.695Z,1.00
2023-04-10T18:46:54.122Z,1.35
2023-04-10T18:49:31.516Z,1.33
2023-04-10T18:52:00.613Z,2.67
2023-04-10T18:54:30.803Z,1.62
2023-04-10T18:56:59.749Z,1.85
2023-04-10T18:59:30.978Z,1.50
2023-04-10T19:02:04.446Z,1.30
2023-04-10T19:04:34.908Z,1.55
2023-04-10T19:07:04.266Z,1.37
2023-04-10T19:09:33.755Z,1.62
2023-04-10T19:12:02.705Z,2.62
2023-04-10T19:14:32.501Z,2.15
2023-04-10T19:17:06.138Z,1.37
2023-04-10T19:19:38.397Z,1.17
2023-04-10T19:22:07.077Z,1.37
2023-04-10T19:24:36.508Z,1.23
2023-04-10T19:27:05.482Z,1.33
2023-04-10T19:29:34.596Z,0.90
2023-04-10T19:32:05.923Z,1.10
2023-04-10T19:34:34.698Z,1.15
2023-04-10T19:37:04.938Z,0.75
2023-04-10T19:39:33.543Z,1.02
2023-04-10T19:42:03.268Z,1.45
2023-04-10T19:44:32.307Z,0.77
2023-04-10T19:47:01.191Z,0.95
2023-04-10T19:49:35.772Z,0.95
2023-04-10T19:52:04.766Z,0.90
2023-04-10T19:54:33.420Z,1.08
2023-04-10T19:57:02.831Z,0.70
2023-04-10T19:59:32.021Z,0.80
2023-04-10T20:02:01.362Z,0.85
2023-04-10T20:04:30.837Z,0.90
2023-04-10T20:07:04.952Z,1.40
2023-04-10T20:09:34.068Z,1.77
2023-04-10T20:12:06.532Z,1.00
2023-04-10T20:14:45.042Z,0.98
2023-04-10T20:17:13.817Z,0.70
2023-04-10T20:19:42.885Z,0.70
2023-04-10T20:22:12.968Z,0.98
2023-04-10T20:24:41.915Z,0.90
2023-04-10T20:27:10.613Z,1.10
2023-04-10T20:29:39.304Z,1.17
2023-04-10T20:32:09.727Z,0.90
2023-04-10T20:34:38.674Z,1.27
2023-04-10T20:37:07.314Z,1.00
2023-04-10T20:39:38.521Z,1.77
2023-04-10T20:42:07.566Z,1.92
2023-04-10T20:44:37.701Z,1.05
2023-04-10T20:47:06.883Z,1.55
2023-04-10T20:49:37.436Z,1.42
2023-04-10T20:52:06.912Z,1.10
2023-04-10T20:54:37.326Z,1.10
2023-04-10T20:57:06.496Z,1.02
2023-04-10T20:59:37.377Z,1.40
2023-04-10T21:02:06.484Z,1.37
2023-04-10T21:04:35.161Z,0.90
2023-04-10T21:07:03.811Z,1.00
2023-04-10T21:09:32.781Z,0.90
2023-04-10T21:12:02.762Z,1.00
2023-04-10T21:14:31.556Z,1.27
2023-04-10T21:17:00.566Z,1.08
2023-04-10T21:19:32.102Z,0.90
2023-04-10T21:22:01.126Z,1.08
2023-04-10T21:24:30.164Z,0.95
2023-04-10T21:26:58.814Z,1.35
2023-04-10T21:29:29.220Z,1.60
2023-04-10T21:31:58.255Z,0.88
2023-04-10T21:34:27.071Z,0.85
2023-04-10T21:36:55.966Z,1.05
2023-04-10T21:39:24.581Z,1.08
2023-04-10T21:41:53.510Z,1.75
2023-04-10T21:44:22.204Z,1.12
2023-04-10T21:46:52.177Z,1.87
2023-04-10T21:49:21.044Z,0.90
2023-04-10T21:51:49.737Z,1.00
2023-04-10T21:54:18.428Z,1.55
2023-04-10T21:56:47.453Z,1.83
2023-04-10T21:59:16.193Z,1.37
2023-04-10T22:01:45.135Z,1.15
2023-04-10T22:04:15.763Z,1.23
2023-04-10T22:06:44.505Z,1.10
2023-04-10T22:09:13.707Z,1.35
2023-04-10T22:11:42.851Z,1.98
2023-04-10T22:14:17.051Z,1.52
2023-04-10T22:16:47.099Z,1.65
2023-04-10T22:19:17.100Z,1.98
2023-04-10T22:21:45.763Z,1.27
2023-04-10T22:24:14.769Z,1.70
2023-04-10T22:26:46.004Z,1.55
2023-04-10T22:29:17.959Z,1.50
2023-04-10T22:31:46.690Z,1.40
2023-04-10T22:34:16.988Z,1.25
2023-04-10T22:36:45.685Z,1.62
2023-04-10T22:39:15.134Z,1.17
2023-04-10T22:41:44.313Z,1.30
2023-04-10T22:44:13.566Z,1.50
2023-04-10T22:46:42.377Z,1.55
2023-04-10T22:49:11.416Z,1.35
2023-04-10T22:51:41.809Z,1.33
2023-04-10T22:54:10.580Z,1.50
2023-04-10T22:56:39.710Z,1.45
2023-04-10T22:59:08.420Z,1.60
2023-04-10T23:01:37.154Z,1.65
2023-04-10T23:04:06.240Z,1.70
2023-04-10T23:06:34.891Z,2.03
2023-04-10T23:09:05.067Z,1.70
2023-04-10T23:11:36.606Z,1.92
2023-04-10T23:16:33.938Z,1.92
2023-04-10T23:19:02.557Z,1.45
2023-04-10T23:21:31.617Z,1.33
2023-04-10T23:24:00.548Z,1.20
2023-04-10T23:26:32.382Z,1.62
2023-04-10T23:29:01.739Z,1.55
2023-04-10T23:31:30.496Z,1.60
2023-04-10T23:33:59.174Z,1.73
2023-04-10T23:36:28.254Z,1.55
2023-04-10T23:38:56.870Z,1.92
2023-04-10T23:41:25.621Z,2.37
2023-04-10T23:43:56.034Z,1.40
2023-04-10T23:46:24.832Z,1.58
2023-04-10T23:48:54.512Z,1.40
2023-04-10T23:51:23.528Z,1.60
2023-04-10T23:53:52.516Z,2.28
2023-04-10T23:56:21.600Z,1.85
2023-04-10T23:58:53.341Z,2.10
